Time;durP1;ratioP1;P1;durP2;ratioP2;P2;SDS_P1;SDS_P2;PMS_P1;PMS_P2;Temp;Humidity;BMP_temperature;BMP_pressure;BME280_temperature;BME280_humidity;BME280_pressure;Samples;Min_cycle;Max_cycle;Signal;HPM_P1;HPM_P2
2022/10/25 00:01:25;;;;;;;5.07;1.33;;;;;;;8.16;100.00;99826.53;5011358;28;20025;-79
2022/10/25 00:03:50;;;;;;;5.60;1.38;;;;;;;8.25;100.00;99833.47;5003323;28;20032;-80
2022/10/25 00:06:16;;;;;;;3.60;1.25;;;;;;;8.30;100.00;99841.78;5006136;28;20034;-79
2022/10/25 00:08:42;;;;;;;4.65;1.27;;;;;;;8.23;100.00;99823.94;5020708;28;20074;-80
2022/10/25 00:11:15;;;;;;;8.23;1.63;;;;;;;8.36;100.00;99837.53;5009465;28;20147;-79
2022/10/25 00:13:40;;;;;;;2.63;1.30;;;;;;;8.46;100.00;99834.63;5024182;28;20030;-80
2022/10/25 00:16:16;;;;;;;2.45;1.40;;;;;;;8.58;100.00;99839.34;5009192;28;20041;-80
2022/10/25 00:18:41;;;;;;;2.60;1.20;;;;;;;8.61;100.00;99842.66;5000282;28;20040;-79
2022/10/25 00:21:07;;;;;;;3.67;1.38;;;;;;;8.53;100.00;99838.22;5000639;28;20046;-79
2022/10/25 00:23:32;;;;;;;3.60;1.15;;;;;;;8.47;100.00;99847.03;5018056;28;20037;-80
2022/10/25 00:26:06;;;;;;;5.97;2.25;;;;;;;8.49;100.00;99840.44;4991927;28;20033;-79
2022/10/25 00:28:31;;;;;;;;;;;;;;;8.38;100.00;99840.88;4992738;28;20041;-79
2022/10/25 00:31:09;;;;;;;8.60;1.80;;;;;;;8.21;100.00;99840.22;5027656;28;19922;-80
2022/10/25 00:33:38;;;;;;;4.07;1.50;;;;;;;8.12;100.00;99834.13;5031709;28;20025;-80
2022/10/25 00:36:11;;;;;;;6.32;1.70;;;;;;;8.10;100.00;99840.66;5010155;28;20112;-79
2022/10/25 00:38:39;;;;;;;5.80;1.23;;;;;;;8.16;100.00;99839.94;5009596;28;21775;-79
2022/10/25 00:41:05;;;;;;;9.52;1.50;;;;;;;8.07;100.00;99839.19;5024540;28;20108;-79
2022/10/25 00:43:37;;;;;;;1.55;0.93;;;;;;;7.92;100.00;99822.25;5027002;28;20044;-80
2022/10/25 00:46:27;;;;;;;4.55;1.48;;;;;;;7.86;100.00;99833.69;5013282;28;20479;-78
2022/10/25 00:49:25;;;;;;;3.08;1.08;;;;;;;7.79;100.00;99838.94;5015436;28;20038;-79
2022/10/25 00:51:56;;;;;;;3.80;1.20;;;;;;;7.81;100.00;99842.25;5019614;28;20492;-79
2022/10/25 00:54:35;;;;;;;3.38;1.20;;;;;;;7.85;100.00;99827.50;5031265;28;20451;-80
2022/10/25 00:57:05;;;;;;;4.38;1.30;;;;;;;7.91;100.00;99832.13;4992152;28;20115;-80
2022/10/25 00:59:30;;;;;;;7.03;1.60;;;;;;;7.96;100.00;99834.25;5029988;28;20048;-79
2022/10/25 01:01:56;;;;;;;1.70;1.00;;;;;;;7.98;100.00;99842.94;5012285;28;20041;-80
2022/10/25 01:04:25;;;;;;;2.63;0.93;;;;;;;8.04;100.00;99836.03;5029358;28;20034;-79
2022/10/25 01:06:51;;;;;;;3.70;0.98;;;;;;;8.12;100.00;99833.25;5013026;28;20467;-79
2022/10/25 01:09:19;;;;;;;4.07;1.38;;;;;;;8.14;100.00;99828.56;5009554;28;20041;-80
2022/10/25 01:11:45;;;;;;;4.28;0.93;;;;;;;8.05;100.00;99824.31;5018860;28;20400;-80
2022/10/25 01:14:13;;;;;;;3.75;1.15;;;;;;;8.09;100.00;99821.06;5028385;28;20035;-79
2022/10/25 01:16:51;;;;;;;4.57;1.23;;;;;;;8.09;100.00;99821.06;5027077;28;20127;-79
2022/10/25 01:19:54;;;;;;;5.53;1.25;;;;;;;8.06;100.00;99820.63;5010359;28;20376;-80
2022/10/25 01:22:37;;;;;;;3.45;0.98;;;;;;;8.03;100.00;99819.13;5026004;28;20033;-80
2022/10/25 01:25:44;;;;;;;6.85;1.58;;;;;;;7.84;100.00;99809.78;5006158;28;20095;-79
2022/10/25 01:28:36;;;;;;;5.50;2.20;;;;;;;7.82;100.00;99821.69;5010516;28;20099;-79
2022/10/25 01:31:23;;;;;;;4.30;1.55;;;;;;;7.79;100.00;99828.22;5028178;28;20033;-80
2022/10/25 01:34:15;;;;;;;4.47;1.60;;;;;;;7.72;100.00;99829.94;5008241;28;20551;-79
2022/10/25 01:36:43;;;;;;;3.05;1.60;;;;;;;7.59;100.00;99825.19;5029223;28;20521;-80
2022/10/25 01:39:11;;;;;;;6.53;1.50;;;;;;;7.57;100.00;99816.53;5022363;28;20045;-79
2022/10/25 01:42:05;;;;;;;6.30;1.55;;;;;;;7.46;100.00;99817.78;5025595;28;20089;-81
2022/10/25 01:44:30;;;;;;;6.53;2.40;;;;;;;7.44;100.00;99814.47;4992042;28;20042;-79
2022/10/25 01:47:06;;;;;;;4.15;1.95;;;;;;;7.44;100.00;99803.75;5025759;28;20064;-79
2022/10/25 01:49:47;;;;;;;1.88;1.10;;;;;;;7.52;100.00;99812.75;5026635;28;20048;-79
2022/10/25 01:52:14;;;;;;;3.53;1.05;;;;;;;7.50;100.00;99794.19;5039489;28;20037;-80
2022/10/25 01:54:40;;;;;;;6.75;1.45;;;;;;;7.61;100.00;99806.31;5007612;28;20117;-80
2022/10/25 01:57:14;;;;;;;1.25;0.95;;;;;;;7.63;100.00;99806.97;5010230;28;20617;-79
2022/10/25 02:00:10;;;;;;;3.60;1.20;;;;;;;7.70;100.00;99802.56;5024842;28;20048;-79
2022/10/25 02:02:44;;;;;;;2.97;1.20;;;;;;;7.77;100.00;99798.13;5010668;28;20064;-79
2022/10/25 02:05:29;;;;;;;7.32;1.50;;;;;;;7.76;100.00;99790.28;5024269;28;20037;-79
2022/10/25 02:08:04;;;;;;;4.32;1.48;;;;;;;7.80;100.00;99789.72;5018843;28;20038;-79
2022/10/25 02:11:00;;;;;;;7.35;1.20;;;;;;;7.87;100.00;99793.34;5025703;28;20396;-80
2022/10/25 02:13:58;;;;;;;6.25;2.13;;;;;;;8.04;100.00;99798.53;5024456;28;20030;-79
2022/10/25 02:16:45;;;;;;;2.85;1.67;;;;;;;8.07;100.00;99795.50;5028006;28;20049;-79
2022/10/25 02:19:14;;;;;;;9.30;1.75;;;;;;;8.06;100.00;99791.16;4993507;28;20033;-78
2022/10/25 02:21:41;;;;;;;5.78;1.70;;;;;;;8.01;100.00;99789.03;5025485;28;20125;-79
2022/10/25 02:24:14;;;;;;;4.35;1.33;;;;;;;7.99;100.00;99783.06;5022845;28;20122;-79
2022/10/25 02:26:40;;;;;;;;;;;;;;;8.03;100.00;99796.88;5010285;28;20025;-78
2022/10/25 02:29:07;;;;;;;3.83;1.98;;;;;;;7.93;100.00;99794.47;5008446;28;20390;-79
2022/10/25 02:31:34;;;;;;;4.32;1.50;;;;;;;7.90;100.00;99795.66;5006753;28;20044;-78
2022/10/25 02:34:00;;;;;;;6.47;2.13;;;;;;;7.89;100.00;99791.34;5022698;28;20132;-79
2022/10/25 02:36:26;;;;;;;6.45;2.38;;;;;;;7.87;100.00;99781.81;5010197;28;20192;-79
2022/10/25 02:38:52;;;;;;;2.30;1.42;;;;;;;7.86;100.00;99785.53;5025786;28;20025;-78
2022/10/25 02:41:19;;;;;;;2.75;1.42;;;;;;;7.71;100.00;99790.84;5025505;28;20427;-80
2022/10/25 02:43:45;;;;;;;3.97;1.73;;;;;;;7.56;100.00;99795.31;5010072;28;20029;-80
2022/10/25 02:46:13;;;;;;;6.05;1.95;;;;;;;7.35;100.00;99777.25;5026081;28;20033;-80
2022/10/25 02:48:39;;;;;;;5.00;2.20;;;;;;;7.28;100.00;99782.50;5026183;28;20029;-80
2022/10/25 02:51:07;;;;;;;4.93;1.95;;;;;;;7.19;100.00;99783.53;5021138;28;20102;-80
2022/10/25 02:53:32;;;;;;;3.33;1.55;;;;;;;6.98;100.00;99771.66;5014247;28;20491;-80
2022/10/25 02:56:03;;;;;;;6.28;1.67;;;;;;;7.04;100.00;99781.66;4990782;28;20163;-80
2022/10/25 02:58:31;;;;;;;9.25;2.05;;;;;;;7.08;100.00;99782.13;5026619;28;20040;-79
2022/10/25 03:00:57;;;;;;;4.90;2.20;;;;;;;7.12;100.00;99771.88;5005256;28;20021;-80
2022/10/25 03:03:23;;;;;;;5.18;1.73;;;;;;;7.15;100.00;99776.91;5016177;28;20034;-80
2022/10/25 03:05:49;;;;;;;5.70;1.50;;;;;;;7.18;100.00;99773.88;5015819;28;20083;-80
2022/10/25 03:08:14;;;;;;;4.95;1.80;;;;;;;7.13;100.00;99757.53;5037948;28;20026;-80
2022/10/25 03:10:40;;;;;;;5.85;1.77;;;;;;;7.22;100.00;99762.66;5000522;28;20061;-80
2022/10/25 03:13:05;;;;;;;4.63;2.00;;;;;;;7.29;100.00;99768.09;5025706;28;20041;-81
2022/10/25 03:15:31;;;;;;;2.50;1.45;;;;;;;7.34;100.00;99767.56;5028875;28;20045;-80
2022/10/25 03:17:57;;;;;;;8.75;1.98;;;;;;;7.46;100.00;99766.97;4999048;28;20095;-80
2022/10/25 03:20:22;;;;;;;2.97;1.73;;;;;;;7.56;100.00;99758.69;5007224;28;20033;-80
2022/10/25 03:22:48;;;;;;;7.10;2.28;;;;;;;7.73;100.00;99762.06;5025669;28;20396;-80
2022/10/25 03:25:13;;;;;;;7.45;1.90;;;;;;;7.88;100.00;99762.88;4991888;28;20072;-81
2022/10/25 03:27:39;;;;;;;3.10;1.30;;;;;;;8.01;100.00;99753.41;5026153;28;20037;-80
2022/10/25 03:30:05;;;;;;;5.72;1.83;;;;;;;8.14;100.00;99753.59;4991916;28;20049;-81
2022/10/25 03:32:31;;;;;;;5.43;2.10;;;;;;;8.28;100.00;99758.13;5023527;28;20119;-82
2022/10/25 03:34:56;;;;;;;8.05;1.77;;;;;;;8.47;100.00;99753.25;5005401;28;20057;-81
2022/10/25 03:37:22;;;;;;;6.60;2.00;;;;;;;8.65;100.00;99745.63;5027785;28;20463;-79
2022/10/25 03:39:48;;;;;;;6.85;2.10;;;;;;;8.85;100.00;99743.19;4995278;28;20039;-79
2022/10/25 03:42:13;;;;;;;8.20;1.85;;;;;;;9.03;100.00;99745.44;5008983;28;20482;-80
2022/10/25 03:44:39;;;;;;;5.97;1.80;;;;;;;9.00;100.00;99741.28;4994562;28;20037;-78
2022/10/25 03:47:05;;;;;;;5.65;1.80;;;;;;;9.18;100.00;99740.00;5025546;28;20038;-80
2022/10/25 03:49:30;;;;;;;5.53;2.08;;;;;;;9.17;100.00;99720.41;5020218;28;20037;-78
2022/10/25 03:51:56;;;;;;;3.90;1.50;;;;;;;9.22;100.00;99722.50;4990875;28;20033;-78
2022/10/25 03:54:22;;;;;;;4.45;2.13;;;;;;;9.37;100.00;99734.00;5026894;28;20040;-79
2022/10/25 03:56:47;;;;;;;8.55;2.00;;;;;;;9.31;100.00;99732.06;5024327;28;20060;-78
2022/10/25 03:59:13;;;;;;;7.10;1.70;;;;;;;9.24;100.00;99720.47;5027641;28;20442;-79
2022/10/25 04:01:38;;;;;;;4.22;1.58;;;;;;;9.32;100.00;99714.97;4990977;28;20030;-78
2022/10/25 04:04:04;;;;;;;5.22;1.88;;;;;;;9.29;100.00;99709.16;4993520;28;20120;-79
2022/10/25 04:06:30;;;;;;;6.60;2.00;;;;;;;9.30;100.00;99708.97;5022928;28;20038;-79
2022/10/25 04:08:58;;;;;;;8.38;2.55;;;;;;;9.45;100.00;99719.63;5005288;28;20036;-78
2022/10/25 04:11:23;;;;;;;10.57;1.90;;;;;;;9.42;100.00;99693.16;5005161;28;20099;-79
2022/10/25 04:13:49;;;;;;;5.75;2.50;;;;;;;9.62;100.00;99717.47;5009774;28;20475;-79
2022/10/25 04:16:16;;;;;;;7.75;2.67;;;;;;;9.65;100.00;99707.16;4994194;28;20037;-79
2022/10/25 04:18:41;;;;;;;6.65;2.05;;;;;;;9.69;100.00;99711.13;4984216;28;20495;-79
2022/10/25 04:21:07;;;;;;;5.25;2.22;;;;;;;9.59;100.00;99718.69;5024331;28;20088;-79
2022/10/25 04:23:33;;;;;;;6.45;2.00;;;;;;;9.56;100.00;99716.41;5004908;28;20033;-79
2022/10/25 04:25:58;;;;;;;4.70;1.60;;;;;;;9.36;100.00;99675.16;5019068;28;20037;-79
2022/10/25 04:28:25;;;;;;;4.50;1.13;;;;;;;9.49;100.00;99703.97;5020693;28;20030;-79
2022/10/25 04:30:51;;;;;;;9.77;2.83;;;;;;;9.61;100.00;99708.59;5026315;28;20029;-79
2022/10/25 04:33:16;;;;;;;8.00;2.05;;;;;;;9.60;100.00;99714.16;5010531;28;20475;-79
2022/10/25 04:35:42;;;;;;;4.22;1.38;;;;;;;9.52;100.00;99704.38;4987037;28;20042;-79
2022/10/25 04:38:09;;;;;;;3.20;1.75;;;;;;;9.56;100.00;99713.72;5020060;28;20537;-79
2022/10/25 04:40:35;;;;;;;9.18;2.00;;;;;;;9.49;100.00;99699.41;5012850;28;20108;-80
2022/10/25 04:43:01;;;;;;;6.00;1.45;;;;;;;9.67;100.00;99713.19;5011150;28;20124;-78
2022/10/25 04:45:28;;;;;;;5.45;1.13;;;;;;;9.81;100.00;99715.94;5028501;28;20060;-79
2022/10/25 04:47:53;;;;;;;6.57;1.67;;;;;;;9.80;100.00;99708.94;5015360;28;20041;-79
2022/10/25 04:50:22;;;;;;;5.50;1.73;;;;;;;9.81;100.00;99710.59;5012007;28;20186;-78
2022/10/25 04:52:48;;;;;;;4.78;1.73;;;;;;;9.83;100.00;99716.59;5011498;28;20037;-79
2022/10/25 04:55:14;;;;;;;9.55;2.22;;;;;;;9.90;100.00;99717.47;5007252;28;20057;-78
2022/10/25 04:57:39;;;;;;;7.22;2.53;;;;;;;9.99;100.00;99718.13;5011280;28;20040;-79
2022/10/25 05:00:06;;;;;;;12.32;2.42;;;;;;;9.93;100.00;99697.47;5011819;28;20163;-79
2022/10/25 05:02:31;;;;;;;7.63;2.40;;;;;;;10.04;100.00;99700.41;4993963;28;20037;-78
2022/10/25 05:04:57;;;;;;;4.32;1.67;;;;;;;10.16;100.00;99711.44;4991086;28;20033;-79
2022/10/25 05:07:22;;;;;;;9.88;2.40;;;;;;;10.13;100.00;99704.59;5011603;28;20030;-79
2022/10/25 05:09:48;;;;;;;7.75;2.10;;;;;;;10.20;100.00;99706.47;4998167;28;20353;-79
2022/10/25 05:12:14;;;;;;;7.63;1.98;;;;;;;10.14;100.00;99697.38;5028457;28;20025;-79
2022/10/25 05:14:39;;;;;;;5.85;2.42;;;;;;;10.26;100.00;99716.41;5024874;28;20041;-78
2022/10/25 05:17:05;;;;;;;8.30;1.70;;;;;;;10.20;100.00;99707.31;5009963;28;20053;-79
2022/10/25 05:19:31;;;;;;;5.38;1.58;;;;;;;10.27;100.00;99715.41;4989010;28;20029;-79
2022/10/25 05:21:56;;;;;;;5.50;1.60;;;;;;;10.27;100.00;99710.03;5012243;28;21758;-79
2022/10/25 05:24:23;;;;;;;6.95;1.58;;;;;;;10.23;100.00;99698.00;5030069;28;20052;-79
2022/10/25 05:26:48;;;;;;;11.32;1.88;;;;;;;10.31;100.00;99704.06;5012106;28;20029;-79
2022/10/25 05:29:14;;;;;;;9.90;2.33;;;;;;;10.28;100.00;99685.66;5028351;28;20361;-79
2022/10/25 05:31:40;;;;;;;2.63;1.40;;;;;;;10.31;100.00;99696.00;5012488;28;20036;-79
2022/10/25 05:34:06;;;;;;;8.52;1.80;;;;;;;10.37;100.00;99699.75;5009269;28;20038;-80
2022/10/25 05:36:32;;;;;;;9.77;2.53;;;;;;;10.39;100.00;99708.44;5010658;28;20040;-79
2022/10/25 05:39:01;;;;;;;6.15;2.15;;;;;;;10.42;100.00;99701.84;5024102;28;20125;-79
2022/10/25 05:41:28;;;;;;;9.30;2.53;;;;;;;10.38;100.00;99696.06;5014137;28;20045;-79
2022/10/25 05:43:53;;;;;;;17.60;3.15;;;;;;;10.34;100.00;99684.03;5026060;28;20033;-79
2022/10/25 05:46:21;;;;;;;8.50;3.08;;;;;;;10.49;100.00;99703.53;4994284;28;20110;-79
2022/10/25 05:48:48;;;;;;;10.32;2.97;;;;;;;10.51;100.00;99700.66;5008763;28;20033;-79
2022/10/25 05:51:25;;;;;;;9.82;3.00;;;;;;;10.42;100.00;99683.84;5006313;28;20102;-79
2022/10/25 05:53:54;;;;;;;8.32;1.95;;;;;;;10.49;100.00;99697.34;5009710;28;20042;-79
2022/10/25 05:56:21;;;;;;;6.80;2.05;;;;;;;10.41;100.00;99687.59;5019865;28;20029;-80
2022/10/25 05:58:47;;;;;;;5.97;2.58;;;;;;;10.46;100.00;99689.69;5028228;28;20340;-79
2022/10/25 06:01:15;;;;;;;3.78;2.28;;;;;;;10.43;100.00;99687.41;5012525;28;20064;-79
2022/10/25 06:03:40;;;;;;;8.25;2.00;;;;;;;10.40;100.00;99688.63;5010902;28;20033;-79
2022/10/25 06:06:08;;;;;;;6.18;1.60;;;;;;;10.41;100.00;99690.28;5005943;28;20103;-80
2022/10/25 06:08:34;;;;;;;10.18;1.90;;;;;;;10.39;100.00;99694.19;5000956;28;20041;-80
2022/10/25 06:11:04;;;;;;;8.63;1.80;;;;;;;10.41;100.00;99692.97;5008499;28;20021;-79
2022/10/25 06:13:30;;;;;;;3.58;1.58;;;;;;;10.31;100.00;99690.63;5010305;28;20038;-79
2022/10/25 06:15:56;;;;;;;9.10;1.83;;;;;;;10.27;100.00;99704.66;5010907;28;20040;-79
2022/10/25 06:18:22;;;;;;;5.50;2.65;;;;;;;10.22;100.00;99697.19;5023657;28;20112;-79
2022/10/25 06:20:48;;;;;;;7.28;1.80;;;;;;;10.23;100.00;99693.47;5012939;28;20383;-79
2022/10/25 06:23:13;;;;;;;5.93;1.42;;;;;;;10.22;100.00;99675.69;5000961;28;20056;-79
2022/10/25 06:25:39;;;;;;;3.40;1.70;;;;;;;10.28;100.00;99690.22;5004010;28;20029;-80
2022/10/25 06:28:08;;;;;;;6.45;1.50;;;;;;;10.42;100.00;99707.22;5021020;28;20041;-79
2022/10/25 06:30:34;;;;;;;8.25;2.10;;;;;;;10.40;100.00;99709.28;5027270;28;20060;-79
2022/10/25 06:32:59;;;;;;;6.50;1.80;;;;;;;10.29;100.00;99691.88;5007501;28;20489;-79
2022/10/25 06:35:25;;;;;;;6.75;1.70;;;;;;;10.25;100.00;99690.59;5003213;28;20033;-79
2022/10/25 06:37:51;;;;;;;6.38;2.03;;;;;;;10.37;100.00;99698.94;5004208;28;20047;-80
2022/10/25 06:40:19;;;;;;;6.43;2.13;;;;;;;10.36;100.00;99691.91;5019518;28;20037;-80
2022/10/25 06:42:45;;;;;;;9.68;2.17;;;;;;;10.42;100.00;99705.34;4988484;28;20018;-81
2022/10/25 06:45:10;;;;;;;10.23;1.70;;;;;;;10.39;100.00;99702.25;5007708;28;20495;-80
2022/10/25 06:47:36;;;;;;;8.27;2.28;;;;;;;10.36;100.00;99695.41;5006643;28;20033;-80
2022/10/25 06:50:02;;;;;;;5.47;1.88;;;;;;;10.41;100.00;99695.66;5024351;28;20030;-81
2022/10/25 06:52:27;;;;;;;6.13;1.55;;;;;;;10.39;100.00;99704.94;4990866;28;20041;-80
2022/10/25 06:54:53;;;;;;;4.80;1.10;;;;;;;10.32;100.00;99686.94;5009021;28;20059;-80
2022/10/25 06:57:19;;;;;;;7.45;2.10;;;;;;;10.46;100.00;99697.75;4988447;28;20061;-80
2022/10/25 06:59:44;;;;;;;3.88;1.30;;;;;;;10.45;100.00;99704.97;5007289;28;20033;-80
2022/10/25 07:02:10;;;;;;;5.28;1.35;;;;;;;10.52;100.00;99708.50;5028982;28;20125;-79
2022/10/25 07:04:36;;;;;;;3.67;1.40;;;;;;;10.54;100.00;99700.25;5008426;28;20045;-80
2022/10/25 07:07:01;;;;;;;3.58;1.50;;;;;;;10.53;100.00;99698.56;5020221;28;20037;-79
2022/10/25 07:09:38;;;;;;;7.35;3.47;;;;;;;10.47;100.00;99688.63;5026514;28;20461;-80
2022/10/25 07:12:06;;;;;;;9.15;2.58;;;;;;;10.45;100.00;99694.22;5028667;28;21268;-80
2022/10/25 07:14:32;;;;;;;4.75;1.30;;;;;;;10.43;100.00;99690.09;5005901;28;20091;-80
2022/10/25 07:17:00;;;;;;;8.45;3.67;;;;;;;10.38;100.00;99696.06;5021534;28;20124;-80
2022/10/25 07:19:26;;;;;;;4.43;1.85;;;;;;;10.35;100.00;99696.47;4999441;28;20557;-79
2022/10/25 07:21:51;;;;;;;11.70;3.92;;;;;;;10.33;100.00;99693.13;4998231;28;20070;-79
2022/10/25 07:24:20;;;;;;;7.47;2.53;;;;;;;10.27;100.00;99692.09;4994564;28;20475;-79
2022/10/25 07:26:45;;;;;;;6.43;2.58;;;;;;;10.25;100.00;99699.47;5010277;28;20052;-79
2022/10/25 07:29:11;;;;;;;7.55;2.83;;;;;;;10.23;100.00;99695.34;5008460;28;20061;-80
2022/10/25 07:31:40;;;;;;;8.40;4.47;;;;;;;10.28;100.00;99688.34;4991244;28;20067;-79
2022/10/25 07:34:06;;;;;;;7.45;4.00;;;;;;;10.33;100.00;99703.88;5009782;28;20094;-80
2022/10/25 07:36:32;;;;;;;14.32;5.25;;;;;;;10.36;100.00;99703.47;5019203;28;20483;-80
2022/10/25 07:38:58;;;;;;;25.35;10.52;;;;;;;10.37;100.00;99697.06;5015090;28;20036;-79
2022/10/25 07:41:25;;;;;;;18.88;7.68;;;;;;;10.39;100.00;99695.00;5026679;28;20041;-80
2022/10/25 07:43:50;;;;;;;30.75;9.70;;;;;;;10.42;100.00;99689.22;5028625;28;20037;-81
2022/10/25 07:46:17;;;;;;;13.40;4.53;;;;;;;10.60;100.00;99695.91;4991560;28;20054;-80
2022/10/25 07:48:43;;;;;;;15.93;5.25;;;;;;;10.65;100.00;99698.84;5013783;28;20041;-79
2022/10/25 07:51:14;;;;;;;20.33;6.78;;;;;;;10.70;100.00;99697.19;5009615;28;20048;-79
2022/10/25 07:53:39;;;;;;;12.73;3.60;;;;;;;10.72;100.00;99705.91;5019857;28;20391;-80
2022/10/25 07:56:06;;;;;;;10.68;3.50;;;;;;;10.79;100.00;99703.22;5017938;28;20041;-79
2022/10/25 07:58:32;;;;;;;10.48;3.45;;;;;;;10.82;100.00;99700.09;5041738;28;20033;-80
2022/10/25 08:01:06;;;;;;;8.02;3.00;;;;;;;10.90;100.00;99697.25;5011224;28;20045;-80
2022/10/25 08:03:32;;;;;;;4.95;2.35;;;;;;;10.97;100.00;99703.44;5023943;28;20074;-79
2022/10/25 08:05:58;;;;;;;7.75;2.30;;;;;;;11.09;100.00;99702.88;5009397;28;20379;-80
2022/10/25 08:08:24;;;;;;;18.52;7.68;;;;;;;11.14;100.00;99700.38;5025225;28;20033;-80
2022/10/25 08:10:50;;;;;;;13.00;4.85;;;;;;;11.21;100.00;99685.88;5020147;28;20384;-80
2022/10/25 08:13:16;;;;;;;23.00;8.90;;;;;;;11.35;100.00;99689.44;5007170;28;20159;-82
2022/10/25 08:15:48;;;;;;;12.88;6.63;;;;;;;11.45;100.00;99697.06;5020182;28;20345;-84
2022/10/25 08:18:14;;;;;;;12.10;5.82;;;;;;;11.52;100.00;99681.75;4990357;28;20116;-83
2022/10/25 08:20:40;;;;;;;11.73;5.93;;;;;;;11.63;100.00;99689.19;5027021;28;20057;-83
2022/10/25 08:23:06;;;;;;;19.70;8.82;;;;;;;11.66;100.00;99687.94;5011610;28;20029;-83
2022/10/25 08:25:31;;;;;;;9.88;4.43;;;;;;;11.78;100.00;99705.13;5028319;28;20104;-83
2022/10/25 08:27:57;;;;;;;21.05;8.02;;;;;;;11.91;100.00;99706.16;4996975;28;20025;-85
2022/10/25 08:30:22;;;;;;;16.58;6.38;;;;;;;12.07;100.00;99706.56;4995875;28;20026;-83
2022/10/25 08:32:49;;;;;;;16.30;7.80;;;;;;;12.29;100.00;99677.47;4991882;28;20439;-84
2022/10/25 08:35:15;;;;;;;10.73;5.57;;;;;;;12.89;100.00;99706.03;4993575;28;20041;-84
2022/10/25 08:37:41;;;;;;;10.88;5.03;;;;;;;13.16;100.00;99704.78;5025195;28;20049;-86
2022/10/25 08:40:16;;;;;;;8.75;3.78;;;;;;;13.45;100.00;99694.44;5006817;28;20037;-86
2022/10/25 08:43:01;;;;;;;7.57;2.90;;;;;;;13.56;100.00;99700.97;5001928;28;20135;-83
2022/10/25 08:45:57;;;;;;;5.10;1.80;;;;;;;13.46;100.00;99690.66;5009028;28;20179;-84
2022/10/25 08:48:29;;;;;;;3.78;2.38;;;;;;;13.50;100.00;99707.28;4996706;28;20070;-85
2022/10/25 08:51:00;;;;;;;8.63;3.58;;;;;;;13.40;100.00;99710.47;5003290;28;20476;-84
2022/10/25 08:53:30;;;;;;;6.25;2.63;;;;;;;13.46;100.00;99709.56;5029215;28;20495;-84
2022/10/25 08:55:56;;;;;;;7.18;4.68;;;;;;;13.63;100.00;99704.47;4996218;28;20044;-84
2022/10/25 08:58:26;;;;;;;8.98;4.18;;;;;;;14.28;100.00;99718.31;4995884;28;20041;-83
2022/10/25 09:00:51;;;;;;;12.35;6.07;;;;;;;14.63;100.00;99708.78;5032436;28;20055;-84
2022/10/25 09:03:25;;;;;;;7.35;3.40;;;;;;;14.43;100.00;99693.63;5028088;28;20033;-82
2022/10/25 09:05:50;;;;;;;;;;;;;;;15.27;100.00;99698.28;5010408;28;20033;-84
2022/10/25 09:08:28;;;;;;;4.20;2.33;;;;;;;16.32;100.00;99680.41;5032785;28;19924;-84
2022/10/25 09:11:08;;;;;;;6.63;1.98;;;;;;;16.64;100.00;99686.19;5026439;28;20068;-83
2022/10/25 09:13:53;;;;;;;8.07;3.40;;;;;;;16.53;100.00;99679.75;5010283;28;20040;-86
2022/10/25 09:16:38;;;;;;;7.88;1.77;;;;;;;15.49;100.00;99677.72;5028186;28;20475;-86
2022/10/25 09:19:34;;;;;;;11.00;5.15;;;;;;;14.68;100.00;99681.88;5030463;28;20474;-83
2022/10/25 09:22:01;;;;;;;14.10;5.07;;;;;;;14.19;100.00;99673.72;5029528;28;20037;-84
2022/10/25 09:24:38;;;;;;;8.55;3.65;;;;;;;14.00;100.00;99683.72;4998391;28;20141;-85
2022/10/25 09:27:18;;;;;;;7.28;3.70;;;;;;;14.14;100.00;99683.56;4995307;28;20040;-84
2022/10/25 09:29:54;;;;;;;4.25;2.35;;;;;;;14.07;100.00;99684.44;5015983;28;20076;-83
2022/10/25 09:32:31;;;;;;;4.45;1.48;;;;;;;13.90;100.00;99672.59;5011419;28;20042;-84
2022/10/25 09:34:58;;;;;;;5.65;2.65;;;;;;;13.77;100.00;99680.84;5012231;28;20476;-83
2022/10/25 09:37:29;;;;;;;12.82;8.13;;;;;;;13.62;100.00;99667.69;4995967;28;20094;-83
2022/10/25 09:39:58;;;;;;;4.13;2.50;;;;;;;13.64;100.00;99681.78;5031473;28;20026;-84
2022/10/25 09:42:29;;;;;;;6.47;2.92;;;;;;;13.63;100.00;99678.28;5011807;28;20025;-84
2022/10/25 09:44:59;;;;;;;8.52;3.58;;;;;;;13.70;100.00;99686.28;5027761;28;20037;-84
2022/10/25 09:47:31;;;;;;;20.08;13.05;;;;;;;13.75;100.00;99680.22;4997799;28;20029;-83
2022/10/25 09:50:03;;;;;;;11.10;6.80;;;;;;;13.76;100.00;99684.56;4998998;28;20106;-84
2022/10/25 09:52:57;;;;;;;25.95;19.13;;;;;;;13.72;100.00;99681.50;4994215;28;20033;-84
2022/10/25 09:55:39;;;;;;;10.48;6.10;;;;;;;13.66;100.00;99681.59;5012699;28;20052;-84
2022/10/25 09:58:10;;;;;;;6.53;4.47;;;;;;;13.59;100.00;99670.81;5008305;28;20040;-84
2022/10/25 10:00:38;;;;;;;8.52;4.15;;;;;;;13.56;100.00;99665.88;5031522;28;20113;-84
2022/10/25 10:03:04;;;;;;;9.63;5.13;;;;;;;13.57;100.00;99662.09;5030359;28;20124;-85
2022/10/25 10:05:30;;;;;;;11.32;3.28;;;;;;;13.50;100.00;99664.88;5013794;28;20466;-83
2022/10/25 10:07:59;;;;;;;5.43;2.45;;;;;;;13.46;100.00;99658.25;5012889;28;20029;-85
2022/10/25 10:10:29;;;;;;;13.02;3.95;;;;;;;13.38;100.00;99653.16;5029213;28;20030;-85
2022/10/25 10:13:12;;;;;;;5.03;3.10;;;;;;;13.46;100.00;99657.44;5030238;28;20029;-85
2022/10/25 10:15:59;;;;;;;6.28;2.55;;;;;;;13.44;100.00;99649.56;5027898;28;20037;-84
2022/10/25 10:18:34;;;;;;;6.30;2.40;;;;;;;13.27;100.00;99626.88;5030211;28;20025;-84
2022/10/25 10:21:02;;;;;;;6.63;2.10;;;;;;;13.46;100.00;99658.25;4993155;28;20139;-84
2022/10/25 10:23:59;;;;;;;8.07;2.42;;;;;;;13.54;100.00;99651.75;5028545;28;20049;-84
2022/10/25 10:26:45;;;;;;;7.43;2.78;;;;;;;13.66;100.00;99643.75;5021240;28;20038;-84
2022/10/25 10:29:13;;;;;;;10.82;3.38;;;;;;;13.75;100.00;99642.41;5006333;28;20431;-84
2022/10/25 10:31:45;;;;;;;10.98;3.05;;;;;;;13.79;100.00;99612.03;5007311;28;20034;-85
2022/10/25 10:34:31;;;;;;;8.82;3.00;;;;;;;14.18;100.00;99631.50;5012974;28;20049;-84
2022/10/25 10:37:21;;;;;;;8.13;1.80;;;;;;;14.38;100.00;99642.09;5017305;28;20048;-84
2022/10/25 10:39:51;;;;;;;5.40;1.50;;;;;;;14.46;100.00;99630.94;5017764;28;20076;-85
2022/10/25 10:42:35;;;;;;;5.82;1.88;;;;;;;14.51;100.00;99628.38;5025295;28;20430;-83
2022/10/25 10:45:14;;;;;;;5.90;2.50;;;;;;;14.84;100.00;99639.81;5036917;28;20048;-85
2022/10/25 10:47:49;;;;;;;3.42;1.83;;;;;;;14.99;100.00;99632.09;5028701;28;20123;-84
2022/10/25 10:50:24;;;;;;;4.63;1.60;;;;;;;15.13;100.00;99638.09;5030136;28;20055;-84
2022/10/25 10:53:15;;;;;;;3.83;1.88;;;;;;;15.41;100.00;99634.72;5012769;28;20490;-84
2022/10/25 10:55:52;;;;;;;3.50;1.55;;;;;;;15.69;100.00;99639.50;5027931;28;20580;-84
2022/10/25 10:58:34;;;;;;;5.50;2.40;;;;;;;16.09;100.00;99636.00;5027416;28;20109;-85
2022/10/25 11:01:03;;;;;;;5.35;1.50;;;;;;;16.35;100.00;99628.38;5018107;28;20036;-84
2022/10/25 11:03:39;;;;;;;4.05;1.38;;;;;;;16.32;100.00;99607.16;5010178;28;20136;-84
2022/10/25 11:06:23;;;;;;;3.50;1.60;;;;;;;16.38;100.00;99628.72;5030430;28;20025;-85
2022/10/25 11:09:11;;;;;;;5.78;2.38;;;;;;;16.90;100.00;99617.75;5009492;28;20033;-85
2022/10/25 11:11:38;;;;;;;3.97;1.77;;;;;;;17.23;100.00;99629.72;5009741;28;20368;-85
2022/10/25 11:14:12;;;;;;;3.22;2.03;;;;;;;17.53;100.00;99623.91;5011699;28;20025;-85
2022/10/25 11:16:58;;;;;;;4.28;2.10;;;;;;;19.00;100.00;99622.41;5011012;28;20503;-83
2022/10/25 11:19:29;;;;;;;3.67;1.48;;;;;;;20.33;93.50;99629.56;5011660;28;20175;-83
2022/10/25 11:22:23;;;;;;;6.13;1.90;;;;;;;19.79;94.62;99626.28;5029722;28;20489;-84
2022/10/25 11:25:07;;;;;;;3.78;1.42;;;;;;;18.77;98.59;99621.69;5026501;28;20116;-83
2022/10/25 11:28:31;;;;;;;3.30;1.23;;;;;;;17.72;100.00;99629.06;5008192;28;20132;-83
2022/10/25 11:31:00;;;;;;;1.60;0.93;;;;;;;17.22;100.00;99621.81;4972374;28;20037;-83
2022/10/25 11:33:51;;;;;;;70.55;66.07;;;;;;;16.83;100.00;99616.25;5028596;28;20116;-83
2022/10/25 11:36:29;;;;;;;3.85;1.70;;;;;;;16.44;100.00;99618.78;5026871;28;20033;-82
2022/10/25 11:39:14;;;;;;;5.05;1.20;;;;;;;16.05;100.00;99608.53;4994728;28;20457;-83
2022/10/25 11:41:44;;;;;;;4.88;1.88;;;;;;;15.69;100.00;99603.41;5018208;28;20123;-84
2022/10/25 11:44:25;;;;;;;3.03;1.55;;;;;;;15.33;100.00;99608.00;5005223;28;20041;-84
2022/10/25 11:47:12;;;;;;;6.55;3.38;;;;;;;14.85;100.00;99569.22;5047875;28;20022;-85